Sikinos — 9HA2865 — position and weather

sailwx.info

Track history (hours):
 
Tides and Currents Weather Stations Pressure Air Temp Water Temp Dewpoint Dewpoint Depression Visibility Wind Speed Wind Dir Waves Ship Positions

Sikinos

Last reported at 2015-Apr-25 15:32 UTC. Time now 2015-Apr-25 16:00 UTC.
Position N 51°58' E 001°32'.

Length 90 m; draft 4.5 m.

Type: Ship (hazmat cat A). MMSI: 256462000.

Date/timePositionNaut miles runAvg speedWind from/ knotsBaromVisibWave heightAir tempDewpointWater temp
2015-Apr-25 15:32N 51°58' E 001°32'4 4.1
2015-Apr-25 14:33N 51°56' E 001°27'3 2.8
2015-Apr-25 13:33N 51°57' E 001°31'0 0.2
2015-Apr-25 12:32N 51°57' E 001°31'0 0.0
2015-Apr-25 11:32N 51°57' E 001°31'0 0.2
2015-Apr-25 10:32N 51°57' E 001°31'0 0.0
2015-Apr-25 09:32N 51°57' E 001°31'0 0.0
2015-Apr-25 08:32N 51°57' E 001°31'0 0.0
2015-Apr-25 07:32N 51°57' E 001°31'0 0.0
2015-Apr-25 06:32N 51°57' E 001°31'0 0.0
2015-Apr-25 05:32N 51°57' E 001°31'0 0.0
2015-Apr-25 04:32N 51°57' E 001°31'0 0.0
2015-Apr-25 03:32N 51°57' E 001°31'0 0.1
2015-Apr-25 02:32N 51°57' E 001°31'0 0.1
2015-Apr-25 01:32N 51°57' E 001°31'6 6.0
2015-Apr-25 00:33N 51°52' E 001°35'9 9.1
2015-Apr-24 23:33N 51°47' E 001°48'1110.8
2015-Apr-24 22:33N 51°37' E 001°50'1111.0
2015-Apr-24 21:33N 51°27' E 001°59'1110.8
2015-Apr-24 20:33N 51°21' E 002°14'10 9.6
2015-Apr-24 19:33N 51°23' E 002°29'10 9.6
2015-Apr-24 18:33N 51°22' E 002°44'9 9.4
2015-Apr-24 17:33N 51°22' E 002°59'8 8.1
2015-Apr-24 16:33N 51°21' E 003°12'  
Track history (hours):
 
Tides and Currents Weather Stations Pressure Air Temp Water Temp Dewpoint Dewpoint Depression Visibility Wind Speed Wind Dir Waves Ship Positions

Sikinos

Last reported at 2015-Apr-25 15:32 UTC. Time now 2015-Apr-25 16:00 UTC.
Position N 51°58' E 001°32'.

Length 90 m; draft 4.5 m.

Type: Ship (hazmat cat A). MMSI: 256462000.

Date/timePositionNaut miles runAvg speedWind from/ knotsBaromVisibWave heightAir tempDewpointWater temp
2015-Apr-25 15:32N 51°58' E 001°32'4 4.1
2015-Apr-25 14:33N 51°56' E 001°27'3 2.8
2015-Apr-25 13:33N 51°57' E 001°31'0 0.2
2015-Apr-25 12:32N 51°57' E 001°31'0 0.0
2015-Apr-25 11:32N 51°57' E 001°31'0 0.2
2015-Apr-25 10:32N 51°57' E 001°31'0 0.0
2015-Apr-25 09:32N 51°57' E 001°31'0 0.0
2015-Apr-25 08:32N 51°57' E 001°31'0 0.0
2015-Apr-25 07:32N 51°57' E 001°31'0 0.0
2015-Apr-25 06:32N 51°57' E 001°31'0 0.0
2015-Apr-25 05:32N 51°57' E 001°31'0 0.0
2015-Apr-25 04:32N 51°57' E 001°31'0 0.0
2015-Apr-25 03:32N 51°57' E 001°31'0 0.1
2015-Apr-25 02:32N 51°57' E 001°31'0 0.1
2015-Apr-25 01:32N 51°57' E 001°31'6 6.0
2015-Apr-25 00:33N 51°52' E 001°35'9 9.1
2015-Apr-24 23:33N 51°47' E 001°48'1110.8
2015-Apr-24 22:33N 51°37' E 001°50'1111.0
2015-Apr-24 21:33N 51°27' E 001°59'1110.8
2015-Apr-24 20:33N 51°21' E 002°14'10 9.6
2015-Apr-24 19:33N 51°23' E 002°29'10 9.6
2015-Apr-24 18:33N 51°22' E 002°44'9 9.4
2015-Apr-24 17:33N 51°22' E 002°59'8 8.1
2015-Apr-24 16:33N 51°21' E 003°12'  

Dump ship's entire track history